Time;durP1;ratioP1;P1;durP2;ratioP2;P2;SDS_P1;SDS_P2;PMS_P1;PMS_P2;Temp;Humidity;BMP_temperature;BMP_pressure;BME280_temperature;BME280_humidity;BME280_pressure;Samples;Min_cycle;Max_cycle;Signal;HPM_P1;HPM_P2
2021/01/05 00:01:21;;;;;;;19.10;13.02;;;;;;;4.96;65.69;100206.94;5120367;28;20055;-64
2021/01/05 00:03:48;;;;;;;20.33;14.65;;;;;;;4.96;65.50;100204.19;5121232;28;20062;-64
2021/01/05 00:06:18;;;;;;;18.63;13.57;;;;;;;4.90;65.58;100199.78;5120664;28;20048;-64
2021/01/05 00:08:48;;;;;;;17.63;12.65;;;;;;;4.94;65.41;100195.34;5125489;27;20051;-64
2021/01/05 00:11:17;;;;;;;18.67;13.65;;;;;;;4.94;66.02;100200.88;5139212;27;20051;-64
2021/01/05 00:13:44;;;;;;;19.75;14.10;;;;;;;4.96;65.65;100204.19;5141576;27;20047;-64
2021/01/05 00:16:11;;;;;;;19.05;13.60;;;;;;;4.96;65.08;100196.72;5140332;27;20059;-64
2021/01/05 00:18:38;;;;;;;19.98;14.13;;;;;;;4.99;65.26;100192.56;5140239;27;20047;-64
2021/01/05 00:21:05;;;;;;;18.83;14.02;;;;;;;4.94;65.23;100203.63;5139795;27;20069;-64
2021/01/05 00:23:35;;;;;;;17.75;13.68;;;;;;;4.92;65.14;100206.66;5138131;27;20051;-64
2021/01/05 00:26:02;;;;;;;19.60;14.07;;;;;;;4.92;65.71;100203.09;5138677;27;20117;-64
2021/01/05 00:28:30;;;;;;;20.02;14.10;;;;;;;4.87;65.91;100202.00;5139200;27;20059;-64
2021/01/05 00:31:01;;;;;;;21.92;14.95;;;;;;;4.91;65.55;100190.38;5139133;27;20058;-64
2021/01/05 00:33:34;;;;;;;21.08;14.82;;;;;;;4.95;65.33;100208.03;5139104;27;20050;-64
2021/01/05 00:36:03;;;;;;;19.35;13.88;;;;;;;4.98;64.72;100196.44;5138240;27;20051;-64
2021/01/05 00:38:31;;;;;;;19.30;15.10;;;;;;;4.96;64.97;100198.66;5138040;27;20054;-64
2021/01/05 00:40:58;;;;;;;20.63;13.57;;;;;;;4.85;65.46;100198.72;5137850;27;20047;-64
2021/01/05 00:43:26;;;;;;;20.00;14.55;;;;;;;4.87;65.49;100196.50;5138043;27;20051;-64
2021/01/05 00:45:54;;;;;;;19.13;14.57;;;;;;;4.90;65.60;100197.03;5137772;27;20047;-64
2021/01/05 00:48:24;;;;;;;20.35;14.68;;;;;;;4.92;65.88;100201.16;5138945;27;20051;-64
2021/01/05 00:50:51;;;;;;;19.98;14.18;;;;;;;4.95;66.15;100200.56;5139089;27;20499;-64
2021/01/05 00:53:18;;;;;;;20.48;13.80;;;;;;;4.96;65.55;100195.91;5138570;27;20077;-64
2021/01/05 00:55:45;;;;;;;20.27;14.30;;;;;;;4.95;65.34;100195.06;5138537;27;20483;-64
2021/01/05 00:58:15;;;;;;;17.95;13.68;;;;;;;4.97;65.66;100194.78;5140007;27;20054;-64
2021/01/05 01:00:42;;;;;;;;;;;;;;;4.96;65.58;100198.66;5139837;27;20054;-64
2021/01/05 01:03:13;;;;;;;18.33;13.80;;;;;;;4.95;65.33;100199.75;5139130;27;20373;-64
2021/01/05 01:05:41;;;;;;;19.35;13.63;;;;;;;4.94;65.43;100192.59;5139171;27;20058;-64
2021/01/05 01:08:09;;;;;;;20.88;15.02;;;;;;;4.94;65.30;100190.66;5139852;27;20062;-64
2021/01/05 01:10:36;;;;;;;20.60;14.93;;;;;;;4.95;65.57;100194.22;5119359;27;20051;-64
2021/01/05 01:13:04;;;;;;;21.77;15.13;;;;;;;4.95;65.32;100202.50;5119179;28;20058;-64
2021/01/05 01:15:31;;;;;;;19.17;14.55;;;;;;;4.91;65.53;100202.25;5118220;28;20066;-64
2021/01/05 01:17:59;;;;;;;18.92;14.23;;;;;;;4.93;65.66;100190.94;5130567;27;20058;-64
2021/01/05 01:20:29;;;;;;;18.95;13.57;;;;;;;4.92;65.23;100205.84;5138862;27;20066;-65
2021/01/05 01:22:57;;;;;;;18.00;13.70;;;;;;;4.92;65.35;100205.84;5139022;27;20050;-64
2021/01/05 01:25:24;;;;;;;19.70;13.73;;;;;;;4.89;65.14;100204.47;5135786;27;20068;-64
2021/01/05 01:27:51;;;;;;;17.45;12.38;;;;;;;4.93;65.26;100194.50;5138605;27;20047;-64
2021/01/05 01:30:20;;;;;;;18.38;14.07;;;;;;;4.88;65.45;100202.81;5137833;27;20055;-64
2021/01/05 01:32:48;;;;;;;19.70;13.77;;;;;;;4.87;65.59;100198.41;5137309;27;20058;-64
2021/01/05 01:35:19;;;;;;;20.40;14.45;;;;;;;4.89;65.86;100187.91;5137826;27;20055;-64
2021/01/05 01:37:49;;;;;;;17.98;13.40;;;;;;;4.91;65.23;100195.91;5137732;27;20058;-64
2021/01/05 01:40:20;;;;;;;18.20;13.88;;;;;;;4.96;65.14;100198.66;5137670;27;20043;-64
2021/01/05 01:42:48;;;;;;;20.13;14.23;;;;;;;4.99;65.68;100200.84;5138448;27;20047;-64
2021/01/05 01:45:23;;;;;;;19.65;13.77;;;;;;;5.00;65.15;100199.75;5138533;27;20051;-64
2021/01/05 01:47:55;;;;;;;20.52;14.38;;;;;;;5.01;65.46;100209.66;5137757;27;20490;-64
2021/01/05 01:50:27;;;;;;;19.70;13.77;;;;;;;4.97;65.65;100205.81;5138735;27;20051;-64
2021/01/05 01:53:33;;;;;;;18.73;13.52;;;;;;;4.99;65.02;100201.66;5138729;27;20047;-64
2021/01/05 01:56:18;;;;;;;21.13;15.05;;;;;;;5.01;65.62;100201.38;5137883;27;20491;-64
2021/01/05 01:58:57;;;;;;;19.98;13.60;;;;;;;5.02;65.49;100208.56;5138109;27;20078;-64
2021/01/05 02:01:53;;;;;;;20.53;14.47;;;;;;;5.05;65.29;100206.03;5137295;27;20051;-64
2021/01/05 02:04:40;;;;;;;20.33;14.38;;;;;;;5.07;65.28;100206.59;5135467;27;20051;-63
2021/01/05 02:07:24;;;;;;;18.95;12.98;;;;;;;5.10;65.08;100202.41;5133871;27;20047;-63
2021/01/05 02:10:07;;;;;;;18.98;14.20;;;;;;;5.09;64.90;100203.56;5135168;27;20066;-63
2021/01/05 02:12:39;;;;;;;19.55;13.38;;;;;;;5.11;64.80;100201.34;5135335;27;20051;-63
2021/01/05 02:15:16;;;;;;;20.10;13.90;;;;;;;5.11;64.72;100195.81;5135541;27;20399;-64
2021/01/05 02:17:58;;;;;;;20.55;13.35;;;;;;;5.09;65.81;100198.84;5134482;27;20055;-63
2021/01/05 02:20:28;;;;;;;22.35;14.77;;;;;;;5.11;64.85;100195.00;5135780;27;20047;-62
2021/01/05 02:22:59;;;;;;;21.58;15.63;;;;;;;5.11;64.64;100195.00;5134376;27;20055;-63
2021/01/05 02:25:49;;;;;;;19.67;13.57;;;;;;;5.14;65.59;100197.97;5134257;27;20055;-62
2021/01/05 02:28:18;;;;;;;17.98;12.63;;;;;;;5.14;64.78;100194.41;5135768;27;20047;-64
2021/01/05 02:30:50;;;;;;;20.77;13.75;;;;;;;5.13;65.64;100196.34;5135121;27;20062;-63
2021/01/05 02:33:27;;;;;;;23.65;14.35;;;;;;;5.16;65.49;100203.22;5134109;27;20047;-64
2021/01/05 02:36:09;;;;;;;19.48;14.05;;;;;;;5.18;65.33;100198.25;5093209;28;20377;-63
2021/01/05 02:38:52;;;;;;;21.48;14.52;;;;;;;5.15;65.25;100194.13;5093410;28;20055;-64
2021/01/05 02:41:35;;;;;;;22.45;14.60;;;;;;;5.15;64.99;100196.88;5093294;28;20063;-64
2021/01/05 02:44:22;;;;;;;18.83;13.57;;;;;;;5.15;64.86;100196.88;5093588;28;20052;-64
2021/01/05 02:46:54;;;;;;;21.63;14.30;;;;;;;5.15;65.58;100202.41;5092460;28;20048;-64
2021/01/05 02:49:33;;;;;;;22.23;15.00;;;;;;;5.15;64.51;100196.88;5092361;28;20500;-64
2021/01/05 02:52:31;;;;;;;20.27;13.90;;;;;;;5.17;64.80;100189.16;5093214;28;20480;-64
2021/01/05 02:55:26;;;;;;;19.52;14.48;;;;;;;5.15;64.88;100198.84;5093119;28;20047;-63
2021/01/05 02:58:02;;;;;;;19.55;14.20;;;;;;;5.15;64.82;100205.16;5092667;28;20396;-64
2021/01/05 03:00:50;;;;;;;18.85;13.52;;;;;;;5.15;64.67;100204.34;5092901;28;20055;-64
2021/01/05 03:03:36;;;;;;;21.73;13.48;;;;;;;5.12;64.81;100202.97;5092245;28;20061;-64
2021/01/05 03:06:32;;;;;;;18.85;12.70;;;;;;;5.12;65.01;100194.69;5092938;28;20051;-64
2021/01/05 03:09:18;;;;;;;20.55;13.63;;;;;;;5.13;64.93;100193.59;5091906;28;20055;-64
2021/01/05 03:12:01;;;;;;;20.60;13.60;;;;;;;5.14;65.21;100188.88;5090496;28;20063;-64
2021/01/05 03:14:36;;;;;;;20.92;13.57;;;;;;;5.15;64.68;100196.06;5093329;28;20052;-64
2021/01/05 03:17:06;;;;;;;24.05;15.35;;;;;;;5.07;64.90;100195.53;5091795;28;20048;-64
2021/01/05 03:19:41;;;;;;;21.45;14.98;;;;;;;5.12;65.27;100186.41;5093006;28;20047;-64
2021/01/05 03:22:11;;;;;;;22.48;14.88;;;;;;;5.12;65.15;100186.41;5092671;28;20392;-64
2021/01/05 03:24:38;;;;;;;22.52;14.18;;;;;;;5.14;64.89;100184.19;5091933;28;20416;-64
2021/01/05 03:27:06;;;;;;;22.35;14.30;;;;;;;5.14;65.01;100180.59;5092266;28;20400;-64
2021/01/05 03:29:34;;;;;;;19.67;13.77;;;;;;;5.14;65.16;100186.13;5092950;28;20056;-64
2021/01/05 03:32:06;;;;;;;20.75;14.18;;;;;;;5.17;64.75;100182.81;5092954;28;20060;-64
2021/01/05 03:34:33;;;;;;;23.15;14.18;;;;;;;5.15;64.68;100190.56;5113473;28;20085;-64
2021/01/05 03:37:00;;;;;;;23.08;14.32;;;;;;;5.17;65.02;100183.63;5133656;28;20052;-64
2021/01/05 03:39:27;;;;;;;19.42;14.18;;;;;;;5.15;64.62;100191.38;5133275;28;20506;-64
2021/01/05 03:41:54;;;;;;;22.27;14.38;;;;;;;5.16;64.96;100187.47;5133576;28;20047;-64
2021/01/05 03:44:21;;;;;;;21.08;13.88;;;;;;;5.10;65.05;100183.09;5133954;28;20051;-64
2021/01/05 03:46:51;;;;;;;23.70;15.60;;;;;;;5.10;64.67;100188.63;5134054;28;20047;-64
2021/01/05 03:49:18;;;;;;;22.15;14.65;;;;;;;5.07;65.56;100194.72;5115325;28;20043;-64
2021/01/05 03:51:44;;;;;;;21.60;14.40;;;;;;;5.07;65.10;100195.53;5113489;28;20051;-64
2021/01/05 03:54:11;;;;;;;21.23;13.40;;;;;;;5.04;65.07;100200.81;5106101;28;20048;-64
2021/01/05 03:56:38;;;;;;;22.98;14.70;;;;;;;4.94;65.26;100192.59;5133538;28;20051;-64
2021/01/05 03:59:05;;;;;;;21.35;13.73;;;;;;;4.98;65.53;100190.94;5132917;28;20058;-64
2021/01/05 04:01:31;;;;;;;22.08;14.27;;;;;;;5.01;65.48;100191.16;5133254;28;20062;-64
2021/01/05 04:03:59;;;;;;;22.95;14.77;;;;;;;4.99;65.54;100192.56;5133454;28;20055;-64
2021/01/05 04:06:27;;;;;;;22.00;14.80;;;;;;;5.01;65.36;100193.09;5133066;28;20047;-64
2021/01/05 04:08:57;;;;;;;20.80;14.20;;;;;;;5.01;65.44;100193.09;5133253;28;20051;-64
2021/01/05 04:11:23;;;;;;;23.00;14.73;;;;;;;5.00;65.55;100194.22;5132368;28;20054;-64
2021/01/05 04:13:51;;;;;;;24.15;14.90;;;;;;;4.99;65.43;100187.84;5132752;28;20064;-64
2021/01/05 04:16:18;;;;;;;21.10;13.95;;;;;;;4.96;65.77;100187.63;5132580;28;20059;-64
2021/01/05 04:18:45;;;;;;;23.42;15.43;;;;;;;4.99;65.38;100189.81;5133444;28;20495;-64
2021/01/05 04:21:14;;;;;;;23.17;12.98;;;;;;;5.00;65.37;100188.72;5132870;28;20387;-64
2021/01/05 04:23:45;;;;;;;22.93;14.93;;;;;;;5.01;65.42;100184.81;5131148;28;20073;-64
2021/01/05 04:26:12;;;;;;;24.02;15.00;;;;;;;5.04;65.05;100184.25;5132743;28;20487;-64
2021/01/05 04:28:39;;;;;;;23.73;14.32;;;;;;;4.99;65.36;100185.09;5133105;28;20078;-64
2021/01/05 04:31:05;;;;;;;23.55;14.38;;;;;;;4.97;65.19;100183.75;5132594;28;20074;-64
2021/01/05 04:33:32;;;;;;;21.77;14.02;;;;;;;4.98;65.10;100186.22;5132178;28;20055;-64
2021/01/05 04:35:59;;;;;;;23.70;14.55;;;;;;;4.98;65.07;100190.94;5132743;28;20054;-64
2021/01/05 04:38:27;;;;;;;23.38;14.73;;;;;;;4.98;65.02;100190.94;5130918;28;21216;-64
2021/01/05 04:40:54;;;;;;;26.35;16.02;;;;;;;4.94;65.55;100200.88;5113452;28;20399;-64
2021/01/05 04:43:39;;;;;;;25.45;14.90;;;;;;;4.87;65.38;100207.53;5116015;28;20062;-64
2021/01/05 04:46:47;;;;;;;23.73;14.18;;;;;;;4.79;65.93;100201.78;5115626;28;20090;-64
2021/01/05 04:49:51;;;;;;;23.92;14.00;;;;;;;4.67;66.39;100207.59;5108106;28;20060;-64
2021/01/05 04:52:24;;;;;;;25.05;15.02;;;;;;;4.71;66.84;100197.66;5115323;28;20051;-64
2021/01/05 04:54:55;;;;;;;20.45;13.35;;;;;;;4.76;66.29;100205.09;5097750;28;20510;-64
2021/01/05 04:57:27;;;;;;;22.00;14.48;;;;;;;4.68;66.30;100201.81;5115355;28;20079;-64
2021/01/05 04:59:58;;;;;;;25.08;15.50;;;;;;;4.72;66.25;100210.34;5133627;27;20069;-64
2021/01/05 05:02:39;;;;;;;24.27;15.27;;;;;;;4.78;67.05;100202.88;5135040;27;20043;-64
2021/01/05 05:05:26;;;;;;;21.70;13.85;;;;;;;4.81;66.87;100208.66;5136336;27;20044;-64
2021/01/05 05:07:57;;;;;;;25.30;15.98;;;;;;;4.85;66.33;100215.25;5135729;27;20047;-64
2021/01/05 05:10:28;;;;;;;24.35;15.27;;;;;;;4.88;66.21;100214.69;5135887;27;20071;-64
2021/01/05 05:13:00;;;;;;;25.83;14.70;;;;;;;4.92;66.32;100214.13;5135271;27;20491;-64
2021/01/05 05:15:35;;;;;;;24.02;15.32;;;;;;;4.93;65.89;100213.81;5135605;27;20058;-64
2021/01/05 05:18:25;;;;;;;22.67;14.63;;;;;;;4.97;65.99;100212.16;5134845;27;20046;-64
2021/01/05 05:21:13;;;;;;;24.25;14.32;;;;;;;4.96;65.92;100210.53;5128061;27;20065;-64
2021/01/05 05:23:56;;;;;;;25.20;14.57;;;;;;;4.98;66.04;100210.25;5135669;27;20044;-64
2021/01/05 05:26:28;;;;;;;24.73;14.48;;;;;;;4.99;65.65;100203.59;5135838;27;20058;-64
2021/01/05 05:28:58;;;;;;;25.52;14.80;;;;;;;5.00;65.60;100216.31;5136297;27;20050;-64
2021/01/05 05:31:25;;;;;;;;;;;;;;;4.96;66.52;100207.75;5136061;27;20047;-64
2021/01/05 05:33:57;;;;;;;27.38;14.48;;;;;;;4.95;66.04;100214.38;5135729;27;19926;-64
2021/01/05 05:36:55;;;;;;;25.58;15.32;;;;;;;4.99;66.73;100214.63;5135426;27;20055;-63
2021/01/05 05:39:36;;;;;;;23.90;14.20;;;;;;;5.01;66.28;100204.97;5120966;27;20047;-64
2021/01/05 05:42:10;;;;;;;25.48;15.02;;;;;;;5.02;65.99;100206.63;5134275;27;20483;-64
2021/01/05 05:44:42;;;;;;;28.05;15.50;;;;;;;4.99;66.10;100214.63;5135210;27;20055;-64
2021/01/05 05:47:14;;;;;;;23.80;14.52;;;;;;;5.01;65.78;100206.91;5135067;27;20473;-64
2021/01/05 05:49:51;;;;;;;23.90;14.43;;;;;;;5.03;65.78;100205.50;5135131;27;20452;-64
2021/01/05 05:52:31;;;;;;;27.90;15.73;;;;;;;5.05;65.93;100210.75;5135375;27;20047;-64
2021/01/05 05:54:58;;;;;;;25.65;14.45;;;;;;;5.03;66.32;100218.47;5135619;27;20059;-64
2021/01/05 05:57:40;;;;;;;27.00;15.68;;;;;;;5.03;66.01;100224.00;5134848;27;20096;-64
2021/01/05 06:00:28;;;;;;;27.35;14.88;;;;;;;5.02;66.18;100212.16;5134877;27;20055;-64
2021/01/05 06:02:58;;;;;;;25.95;15.52;;;;;;;5.02;66.49;100223.19;5134853;27;20062;-64
2021/01/05 06:05:29;;;;;;;24.73;15.00;;;;;;;5.03;66.70;100221.25;5135050;27;20062;-64
2021/01/05 06:07:56;;;;;;;25.23;14.18;;;;;;;5.00;65.99;100219.88;5134759;27;20467;-64
2021/01/05 06:10:24;;;;;;;27.15;15.57;;;;;;;4.96;66.43;100229.03;5133521;27;20085;-64
2021/01/05 06:12:54;;;;;;;25.15;15.00;;;;;;;4.97;66.57;100222.38;5134427;27;20047;-64
2021/01/05 06:15:21;;;;;;;27.52;15.48;;;;;;;4.96;66.83;100223.50;5135038;27;20047;-64
2021/01/05 06:17:48;;;;;;;29.63;16.10;;;;;;;4.98;66.42;100230.38;5137537;27;20050;-64
2021/01/05 06:20:16;;;;;;;25.77;15.18;;;;;;;4.99;66.53;100234.78;5134876;27;20499;-64
2021/01/05 06:22:43;;;;;;;27.45;15.38;;;;;;;5.04;66.66;100233.94;5134441;27;20415;-64
2021/01/05 06:25:11;;;;;;;28.42;16.58;;;;;;;5.04;66.64;100234.78;5128842;27;20121;-64
2021/01/05 06:27:38;;;;;;;28.65;16.25;;;;;;;5.05;66.59;100233.66;5113828;27;20058;-64
2021/01/05 06:30:07;;;;;;;28.60;16.85;;;;;;;5.10;66.29;100232.78;5121999;27;20046;-64
2021/01/05 06:32:37;;;;;;;27.35;16.60;;;;;;;5.11;65.95;100223.41;5134095;27;20386;-64
2021/01/05 06:35:05;;;;;;;27.05;16.42;;;;;;;5.09;65.81;100239.44;5132161;27;20406;-64
2021/01/05 06:37:32;;;;;;;28.08;16.77;;;;;;;5.06;66.15;100234.47;5126253;27;20114;-64
2021/01/05 06:39:59;;;;;;;29.58;16.05;;;;;;;5.07;66.30;100233.38;5134676;27;20062;-63
2021/01/05 06:42:26;;;;;;;28.13;16.08;;;;;;;5.08;65.83;100230.34;5134054;27;20051;-64
2021/01/05 06:44:52;;;;;;;28.55;16.10;;;;;;;5.07;66.22;100233.38;5134694;27;20491;-64
2021/01/05 06:47:20;;;;;;;28.27;15.20;;;;;;;5.10;66.00;100232.78;5133479;27;20447;-63
2021/01/05 06:49:47;;;;;;;28.58;15.50;;;;;;;5.12;66.08;100224.22;5134502;27;20043;-63
2021/01/05 06:52:14;;;;;;;25.08;15.10;;;;;;;5.14;66.47;100224.78;5133655;27;20047;-63
2021/01/05 06:54:41;;;;;;;28.45;15.50;;;;;;;5.11;66.37;100239.16;5133055;27;20066;-64
2021/01/05 06:57:08;;;;;;;24.60;15.57;;;;;;;5.16;65.66;100226.13;5133372;27;20058;-64
2021/01/05 06:59:36;;;;;;;27.02;15.55;;;;;;;5.18;66.01;100228.63;5139674;27;20420;-63
2021/01/05 07:02:05;;;;;;;30.15;16.42;;;;;;;5.17;65.98;100233.31;5148930;27;20058;-63
2021/01/05 07:04:33;;;;;;;27.92;16.40;;;;;;;5.19;66.07;100244.91;5132713;27;20059;-63
2021/01/05 07:07:00;;;;;;;28.80;16.92;;;;;;;5.20;66.00;100248.50;5134304;27;20411;-64
2021/01/05 07:09:28;;;;;;;26.02;14.82;;;;;;;5.19;65.77;100236.63;5133685;27;20051;-64
2021/01/05 07:11:55;;;;;;;26.50;14.55;;;;;;;5.22;65.90;100243.50;5134278;27;20374;-64
2021/01/05 07:14:26;;;;;;;27.45;15.45;;;;;;;5.20;65.95;100252.06;5133654;27;20054;-64
2021/01/05 07:16:53;;;;;;;30.48;16.50;;;;;;;5.20;65.53;100254.00;5113111;28;20062;-64
2021/01/05 07:19:20;;;;;;;28.85;16.13;;;;;;;5.19;65.74;100268.94;5113592;28;20432;-64
2021/01/05 07:21:50;;;;;;;29.05;16.45;;;;;;;5.20;65.83;100259.53;5127735;27;20054;-64
2021/01/05 07:24:20;;;;;;;26.73;15.32;;;;;;;5.23;65.69;100262.56;5129349;27;20047;-63
2021/01/05 07:26:49;;;;;;;28.17;16.20;;;;;;;5.21;65.46;100267.53;5121201;28;20051;-63
2021/01/05 07:29:16;;;;;;;24.95;14.82;;;;;;;5.19;65.78;100264.25;5133181;27;20399;-64
2021/01/05 07:31:44;;;;;;;31.40;16.35;;;;;;;5.16;65.71;100266.72;5132496;27;20407;-63
2021/01/05 07:34:11;;;;;;;27.80;14.90;;;;;;;5.15;65.72;100271.44;5133122;27;20055;-63
2021/01/05 07:36:40;;;;;;;28.13;15.60;;;;;;;5.07;66.30;100263.75;5097856;27;20045;-64
2021/01/05 07:39:15;;;;;;;26.05;15.70;;;;;;;5.08;66.03;100263.47;5093079;28;20405;-64
2021/01/05 07:41:42;;;;;;;29.95;15.55;;;;;;;5.08;66.17;100257.94;5092002;28;20446;-64
2021/01/05 07:44:09;;;;;;;28.15;14.82;;;;;;;5.06;66.01;100260.16;5078122;28;20060;-64
2021/01/05 07:46:36;;;;;;;27.95;14.82;;;;;;;5.06;66.34;100260.16;5072265;28;20064;-64
2021/01/05 07:49:03;;;;;;;29.00;16.20;;;;;;;5.07;66.29;100260.97;5079703;28;20048;-64
2021/01/05 07:51:30;;;;;;;30.27;16.50;;;;;;;5.05;66.46;100258.50;5091965;28;20064;-64
2021/01/05 07:53:56;;;;;;;27.10;16.40;;;;;;;5.04;66.46;100251.34;5092154;28;20044;-64
2021/01/05 07:56:24;;;;;;;31.02;16.88;;;;;;;5.03;66.80;100254.38;5091564;28;20118;-64
2021/01/05 07:58:51;;;;;;;28.48;15.50;;;;;;;5.03;66.91;100255.19;5075326;28;20056;-63
2021/01/05 08:01:23;;;;;;;26.67;15.73;;;;;;;5.08;66.64;100263.47;5073509;28;20059;-64
2021/01/05 08:03:50;;;;;;;25.83;14.93;;;;;;;5.14;66.58;100266.19;5076175;28;20052;-63
2021/01/05 08:06:17;;;;;;;28.60;15.55;;;;;;;5.12;66.52;100251.84;5078123;28;20501;-63
2021/01/05 08:08:46;;;;;;;32.17;16.33;;;;;;;5.19;66.11;100261.47;5086681;28;20522;-63
2021/01/05 08:11:13;;;;;;;31.95;18.15;;;;;;;5.21;66.41;100261.19;5085637;28;20059;-63
2021/01/05 08:13:40;;;;;;;31.45;16.65;;;;;;;5.27;66.00;100266.41;5085628;28;20063;-63
2021/01/05 08:16:07;;;;;;;29.42;16.05;;;;;;;5.28;66.02;100268.03;5094228;28;20056;-63
2021/01/05 08:18:34;;;;;;;30.35;16.63;;;;;;;5.31;65.86;100268.59;5083448;28;20099;-63
2021/01/05 08:21:02;;;;;;;29.48;16.20;;;;;;;5.26;66.40;100266.69;5093272;28;20060;-63
2021/01/05 08:23:29;;;;;;;28.20;16.63;;;;;;;5.27;66.28;100274.69;5072991;28;20044;-63
2021/01/05 08:25:56;;;;;;;29.88;16.63;;;;;;;5.28;66.04;100279.09;5093891;28;20052;-63
2021/01/05 08:28:22;;;;;;;31.58;16.77;;;;;;;5.29;65.86;100268.88;5096094;28;20044;-63
2021/01/05 08:30:53;;;;;;;28.95;16.13;;;;;;;5.26;66.06;100283.25;5114501;28;20060;-63
2021/01/05 08:33:19;;;;;;;;;;;;;;;5.28;65.90;100283.78;5099056;28;20523;-63
2021/01/05 08:35:47;;;;;;;26.30;15.05;;;;;;;5.25;65.99;100282.44;5100827;28;19920;-63
2021/01/05 08:38:14;;;;;;;28.17;16.40;;;;;;;5.31;65.92;100288.75;5096204;28;20052;-63
2021/01/05 08:40:41;;;;;;;27.13;15.85;;;;;;;5.29;66.18;100297.34;5095486;28;20063;-63
2021/01/05 08:43:09;;;;;;;29.80;16.15;;;;;;;5.20;66.17;100289.91;5096570;28;20411;-63
2021/01/05 08:45:40;;;;;;;30.17;16.75;;;;;;;5.20;66.26;100287.97;5105373;28;20363;-63
2021/01/05 08:48:08;;;;;;;26.77;15.68;;;;;;;5.27;65.60;100288.50;5095689;28;20052;-63
2021/01/05 08:50:35;;;;;;;29.77;16.65;;;;;;;5.18;65.80;100284.66;5098949;28;20079;-63
2021/01/05 08:53:04;;;;;;;30.20;16.20;;;;;;;5.22;65.98;100296.78;5094748;28;20049;-63
2021/01/05 08:55:34;;;;;;;31.45;17.38;;;;;;;5.22;65.81;100291.28;5090561;28;20052;-63
2021/01/05 08:58:01;;;;;;;;;;;;;;;5.18;66.00;100290.19;5091760;28;20051;-63
2021/01/05 09:00:28;;;;;;;30.30;15.23;;;;;;;5.19;66.45;100283.56;5087646;28;19930;-63
2021/01/05 09:02:55;;;;;;;25.65;14.68;;;;;;;5.23;66.27;100297.63;5101684;28;20060;-63
2021/01/05 09:05:23;;;;;;;26.65;15.82;;;;;;;5.26;66.02;100295.13;5098782;28;20143;-63
2021/01/05 09:07:51;;;;;;;28.33;16.00;;;;;;;5.27;65.93;100291.25;5109775;28;20057;-63
2021/01/05 09:10:21;;;;;;;31.27;17.70;;;;;;;5.31;65.90;100298.97;5109103;28;20488;-63
2021/01/05 09:12:47;;;;;;;;;;;;;;;5.32;65.95;100289.59;5107313;28;20051;-62
2021/01/05 09:15:16;;;;;;;28.27;15.98;;;;;;;5.32;65.92;100297.88;5095216;28;19924;-63
2021/01/05 09:17:44;;;;;;;30.05;16.25;;;;;;;5.32;66.24;100293.16;5104704;28;20048;-63
2021/01/05 09:20:15;;;;;;;30.08;17.10;;;;;;;5.35;66.18;100300.88;5097499;28;20051;-63
2021/01/05 09:22:43;;;;;;;29.98;16.83;;;;;;;5.38;65.92;100294.78;5102160;28;20044;-63
2021/01/05 09:25:10;;;;;;;32.25;17.02;;;;;;;5.39;65.68;100292.84;5097213;28;20067;-62
2021/01/05 09:27:37;;;;;;;28.98;16.15;;;;;;;5.40;65.34;100302.81;5099633;28;20464;-64
2021/01/05 09:30:06;;;;;;;30.48;16.73;;;;;;;5.35;65.74;100306.41;5097542;28;20052;-63
2021/01/05 09:32:35;;;;;;;31.30;16.77;;;;;;;5.23;66.01;100295.69;5089040;28;20051;-63
2021/01/05 09:35:02;;;;;;;29.17;17.55;;;;;;;5.23;66.20;100303.97;5085172;28;20055;-63
2021/01/05 09:37:29;;;;;;;30.70;16.15;;;;;;;5.27;65.75;100293.16;5092527;28;20055;-63
2021/01/05 09:39:56;;;;;;;29.23;16.20;;;;;;;5.31;65.90;100293.44;5092931;28;20472;-63
2021/01/05 09:42:23;;;;;;;29.98;16.88;;;;;;;5.39;65.71;100284.56;5094722;28;20043;-63
2021/01/05 09:44:50;;;;;;;32.33;17.05;;;;;;;5.40;65.89;100291.75;5090567;28;20050;-63
2021/01/05 09:47:21;;;;;;;27.75;16.15;;;;;;;5.45;65.84;100277.91;5109768;28;20055;-63
2021/01/05 09:49:48;;;;;;;29.42;17.45;;;;;;;5.46;65.60;100283.16;5093862;28;20055;-63
2021/01/05 09:52:16;;;;;;;28.35;16.15;;;;;;;5.51;65.41;100287.00;5104663;28;20063;-63
2021/01/05 09:54:47;;;;;;;28.08;16.15;;;;;;;5.56;65.14;100285.00;5085609;28;20059;-63
2021/01/05 09:57:15;;;;;;;27.33;15.90;;;;;;;5.57;64.86;100291.38;5108955;28;21259;-63
2021/01/05 09:59:43;;;;;;;26.10;15.50;;;;;;;5.61;64.81;100292.47;5099282;28;20059;-63
2021/01/05 10:02:11;;;;;;;25.20;15.25;;;;;;;5.60;64.81;100291.63;5098975;28;20059;-63
2021/01/05 10:04:40;;;;;;;31.65;17.80;;;;;;;5.62;64.95;100297.69;5080171;28;20416;-63
2021/01/05 10:07:08;;;;;;;27.60;16.27;;;;;;;5.67;64.70;100289.38;5096189;28;20039;-63
2021/01/05 10:09:36;;;;;;;26.17;16.60;;;;;;;5.69;64.75;100291.84;5098297;28;20055;-63
2021/01/05 10:12:04;;;;;;;28.27;16.35;;;;;;;5.70;64.89;100287.97;5097241;28;20047;-63
2021/01/05 10:14:32;;;;;;;27.33;16.65;;;;;;;5.68;64.15;100287.44;5089885;28;20039;-63
2021/01/05 10:16:59;;;;;;;27.60;16.42;;;;;;;5.59;64.62;100283.63;5097281;28;20048;-63
2021/01/05 10:19:28;;;;;;;26.80;16.23;;;;;;;5.64;64.85;100291.88;5089439;28;20048;-63
2021/01/05 10:22:05;;;;;;;28.20;15.68;;;;;;;5.54;64.84;100292.75;5095851;28;20357;-63
2021/01/05 10:24:32;;;;;;;29.23;16.30;;;;;;;5.59;64.52;100289.97;5090648;28;20051;-63
2021/01/05 10:26:59;;;;;;;27.00;16.60;;;;;;;5.47;65.03;100282.03;5091671;28;20059;-64
2021/01/05 10:29:25;;;;;;;25.55;15.23;;;;;;;5.51;65.15;100287.81;5103549;28;20043;-63
2021/01/05 10:31:56;;;;;;;24.98;15.00;;;;;;;5.56;64.56;100293.28;5103696;28;20519;-63
2021/01/05 10:34:24;;;;;;;29.38;16.60;;;;;;;5.59;64.46;100289.97;5081063;28;20405;-63
2021/01/05 10:36:52;;;;;;;28.35;17.80;;;;;;;5.61;64.64;100271.19;5093824;28;20044;-63
2021/01/05 10:39:19;;;;;;;26.27;15.27;;;;;;;5.65;64.40;100275.03;5094929;28;20383;-63
2021/01/05 10:41:46;;;;;;;25.50;16.42;;;;;;;5.66;64.57;100262.84;5095507;28;20052;-63
2021/01/05 10:44:15;;;;;;;27.65;17.10;;;;;;;5.74;64.51;100274.41;5093739;28;20062;-63
2021/01/05 10:46:42;;;;;;;33.80;21.10;;;;;;;5.74;64.03;100274.41;5106906;28;20050;-64
2021/01/05 10:49:11;;;;;;;27.52;16.88;;;;;;;5.73;64.44;100270.00;5094013;28;20490;-63
2021/01/05 10:51:44;;;;;;;29.15;16.40;;;;;;;5.78;64.15;100269.97;5102454;28;20055;-63
2021/01/05 10:54:11;;;;;;;30.33;16.88;;;;;;;5.72;64.21;100276.66;5090182;28;20047;-63
2021/01/05 10:56:38;;;;;;;28.77;17.35;;;;;;;5.72;64.53;100271.94;5099426;28;20063;-63
2021/01/05 10:59:05;;;;;;;30.80;19.27;;;;;;;5.77;64.41;100279.34;5093970;28;20048;-63
2021/01/05 11:01:32;;;;;;;26.95;15.50;;;;;;;5.77;64.25;100269.13;5072850;28;20048;-63
2021/01/05 11:04:01;;;;;;;26.50;15.18;;;;;;;5.78;64.12;100265.25;5088580;28;20055;-62
2021/01/05 11:06:29;;;;;;;31.73;17.75;;;;;;;5.78;64.20;100264.44;5093451;28;20059;-63
2021/01/05 11:08:56;;;;;;;27.50;15.57;;;;;;;5.74;63.86;100266.94;5092280;28;20151;-62
2021/01/05 11:11:23;;;;;;;26.05;15.30;;;;;;;5.75;64.01;100265.81;5105560;28;20420;-63
2021/01/05 11:13:50;;;;;;;23.83;14.30;;;;;;;5.76;63.98;100261.97;5091058;28;20055;-62
2021/01/05 11:16:17;;;;;;;23.10;14.45;;;;;;;5.74;63.97;100268.88;5101684;28;20059;-61
2021/01/05 11:18:44;;;;;;;25.58;15.13;;;;;;;5.75;64.08;100265.81;5089096;28;20048;-61
2021/01/05 11:21:11;;;;;;;24.27;14.25;;;;;;;5.77;64.26;100257.25;5111533;28;20055;-62
2021/01/05 11:23:42;;;;;;;23.25;14.30;;;;;;;5.80;64.06;100251.16;5093495;28;20048;-62
2021/01/05 11:26:10;;;;;;;24.80;14.20;;;;;;;5.86;63.54;100255.53;5110112;28;20052;-62
2021/01/05 11:28:37;;;;;;;27.90;17.45;;;;;;;5.88;63.81;100256.06;5101685;28;20432;-62
2021/01/05 11:31:07;;;;;;;25.08;15.13;;;;;;;5.85;63.77;100251.09;5100569;28;20056;-62
2021/01/05 11:33:34;;;;;;;30.75;17.27;;;;;;;5.86;63.47;100248.06;5090165;28;20048;-62
2021/01/05 11:36:01;;;;;;;24.67;15.45;;;;;;;5.82;63.81;100260.81;5101482;28;20416;-62